• Join FlightAware (Why Join?)
  • Login
  • US Flag 
07:05PM EDT


 

Airport Tracker/Info


-or-


 

Live Flight TrackerFlight Track Log ✈ DAL268 ✈ 09-Aug-2013 ✈ KSFO - KJFK

Flight Track Log - Related Links

Times and Time Zones

All times are in EDT time to prevent confusion due to time zone crossing. See the DAL268 flight status page for this flight to view local times or setup timezone preferences in your user account.

Time Position Orientation Groundspeed Altitude Reporting Facility
EDT Latitude Longitude Course Direction KTS MPH feet Rate Location/Type
02:47PM 37.6180 -122.3740 90° East 155 178  Level FlightAware
02:47PM 37.6321 -122.3640 29° Northeast 174 200 700 2,400 Climbing FlightAware ADS-B
02:47PM 37.6398 -122.3560 39° Northeast 180 207 1,300 2,220 Climbing FlightAware ADS-B
02:48PM 37.6490 -122.3440 46° Northeast 195 224 1,700 1,500 Climbing FlightAware ADS-B
02:48PM 37.6592 -122.3310 45° Northeast 218 251 2,100 1,500 Climbing FlightAware ADS-B
02:48PM 37.6704 -122.3160 47° Northeast 237 273 2,500 1,800 Climbing FlightAware ADS-B
02:48PM 37.6822 -122.3000 47° Northeast 255 293 3,000 2,280 Climbing FlightAware ADS-B
02:49PM 37.6959 -122.2820 46° Northeast 267 307 3,700 2,700 Climbing FlightAware ADS-B
02:49PM 37.7093 -122.2650 45° Northeast 272 313 4,400 3,060 Climbing FlightAware ADS-B
02:49PM 37.7370 -122.2290 46° Northeast 279 321 6,100 2,880 Climbing FlightAware
02:50PM 37.7483 -122.2130 48° Northeast 271 312 6,600 2,760 Climbing FlightAware ADS-B
02:50PM 37.7600 -122.1970 47° Northeast 288 331 7,300 3,120 Climbing FlightAware ADS-B
02:50PM 37.7666 -122.1890 44° Northeast 288 331 7,600 3,000 Climbing FlightAware ADS-B
02:50PM 37.7765 -122.1790 39° Northeast 289 333 8,100 2,880 Climbing FlightAware ADS-B
02:50PM 37.8034 -122.1530 37° Northeast 296 341 9,300 2,760 Climbing FlightAware ADS-B
02:51PM 37.8214 -122.1360 37° Northeast 302 348 10,000 1,860 Climbing FlightAware ADS-B
02:51PM 37.8569 -122.1010 38° Northeast 332 382 10,800 1,320 Climbing FlightAware ADS-B
02:52PM 37.8989 -122.0620 36° Northeast 367 422 11,400 1,440 Climbing FlightAware ADS-B
02:52PM 37.9422 -122.0220 36° Northeast 388 447 12,300 1,980 Climbing FlightAware ADS-B
02:53PM 37.9883 -121.9790 36° Northeast 399 459 13,500 2,220 Climbing FlightAware ADS-B
02:54PM 38.0650 -121.9080 36° Northeast 412 474 15,400 2,280 Climbing FlightAware
02:54PM 38.1240 -121.8530 36° Northeast 420 483 16,900 2,220 Climbing FlightAware
02:55PM 38.1740 -121.8060 36° Northeast 428 493 18,000 1,980 Climbing FlightAware
02:55PM 38.2310 -121.7520 37° Northeast 436 502 19,200 1,980 Climbing FlightAware
02:56PM 38.2850 -121.7020 36° Northeast 442 509 20,300 1,740 Climbing FlightAware
02:57PM 38.3420 -121.6470 37° Northeast 453 521 21,200 1,620 Climbing FlightAware
02:57PM 38.4040 -121.5890 36° Northeast 460 529 22,300 1,740 Climbing FlightAware
02:58PM 38.4600 -121.5220 43° Northeast 467 537 23,300 1,440 Climbing FlightAware
02:58PM 38.5060 -121.4450 53° Northeast 478 550 24,000 1,320 Climbing FlightAware
02:59PM 38.5510 -121.3680 53° Northeast 484 557 24,800 1,440 Climbing FlightAware
02:59PM 38.6000 -121.2840 53° Northeast 489 563 25,700 1,320 Climbing FlightAware
03:00PM 38.6460 -121.2040 54° Northeast 496 571 26,400 1,200 Climbing FlightAware
03:01PM 38.6920 -121.1250 53° Northeast 502 578 27,100 960 Climbing FlightAware
03:01PM 38.7470 -121.0300 53° Northeast 515 593 27,600 840 Climbing FlightAware
03:02PM 38.7960 -120.9450 53° Northeast 522 601 28,200 1,200 Climbing FlightAware
03:02PM 38.8450 -120.8590 54° Northeast 525 604 29,000 1,440 Climbing FlightAware
03:03PM 38.8940 -120.7750 53° Northeast 522 601 29,900 1,560 Climbing FlightAware
03:04PM 38.9430 -120.6890 54° Northeast 519 597 30,800 1,560 Climbing FlightAware
03:04PM 38.9950 -120.6000 53° Northeast 516 594 31,700 1,440 Climbing FlightAware
03:05PM 39.0420 -120.5190 53° Northeast 514 592 32,500 1,320 Climbing FlightAware
03:05PM 39.0920 -120.4320 53° Northeast 513 590 33,300 1,200 Climbing FlightAware
03:06PM 39.1420 -120.3440 54° Northeast 512 589 34,000 1,260 Climbing FlightAware
03:07PM 39.1960 -120.2500 53° Northeast 505 581 34,900 840 Climbing FlightAware
03:07PM 39.2390 -120.1750 53° Northeast 505 581 35,000 60 Climbing FlightAware
03:08PM 39.2890 -120.0860 54° Northeast 506 582 35,000  Level FlightAware
03:08PM 39.3400 -119.9960 54° Northeast 504 580 35,000  Level FlightAware
03:09PM 39.3890 -119.9100 54° Northeast 508 585 35,000  Level FlightAware
03:09PM 39.4350 -119.8270 54° Northeast 509 586 35,000  Level FlightAware
03:10PM 39.4850 -119.7380 54° Northeast 512 589 35,000  Level FlightAware
03:11PM 39.5300 -119.6580 54° Northeast 513 590 35,000  Level FlightAware
03:11PM 39.5800 -119.5690 54° Northeast 512 589 35,000  Level FlightAware
03:12PM 39.6270 -119.4840 54° Northeast 511 588 35,000  Level FlightAware
03:12PM 39.6750 -119.3980 54° Northeast 511 588 35,000  Level FlightAware
03:13PM 39.7260 -119.3060 54° Northeast 510 587 35,000  Level FlightAware
03:13PM 39.7700 -119.2260 54° Northeast 510 587 35,000  Level FlightAware
03:14PM 39.8190 -119.1380 54° Northeast 507 583 35,000  Level FlightAware
03:15PM 39.8650 -119.0540 54° Northeast 506 582 35,000  Level FlightAware
03:15PM 39.9170 -118.9590 54° Northeast 504 580 35,000  Level FlightAware
03:16PM 39.9610 -118.8790 54° Northeast 503 579 35,000  Level FlightAware
03:16PM 40.0110 -118.7870 55° Northeast 502 578 35,000  Level FlightAware
03:17PM 40.0610 -118.6950 55° Northeast 502 578 35,000  Level FlightAware
03:18PM 40.1010 -118.6210 55° Northeast 499 574 35,000  Level FlightAware
03:18PM 40.1400 -118.5220 63° Northeast 493 567 35,000  Level FlightAware
03:19PM 40.1670 -118.4280 69° East 492 566 35,000  Level FlightAware
03:19PM 40.1950 -118.3270 70° East 490 564 35,000  Level FlightAware
03:20PM 40.2280 -118.2030 71° East 491 565 35,000  Level FlightAware
03:21PM 40.2570 -118.0990 70° East 489 563 35,000  Level FlightAware
03:21PM 40.2810 -118.0140 70° East 489 563 35,000  Level FlightAware
03:22PM 40.3050 -117.9260 70° East 489 563 35,000  Level FlightAware
03:23PM 40.3290 -117.8380 70° East 489 563 35,000  Level FlightAware
03:23PM 40.3530 -117.7530 70° East 489 563 35,000  Level FlightAware
03:24PM 40.3770 -117.6650 70° East 489 563 35,000  Level FlightAware
03:24PM 40.4010 -117.5800 70° East 489 563 35,000  Level FlightAware
03:25PM 40.4260 -117.4900 70° East 489 563 35,000  Level FlightAware
03:26PM 40.4500 -117.4040 70° East 489 563 35,000  Level FlightAware
03:26PM 40.4720 -117.3230 70° East 489 563 35,000  Level FlightAware
03:27PM 40.4960 -117.2380 70° East 489 563 35,000  Level FlightAware
03:27PM 40.5190 -117.1520 71° East 489 563 35,000  Level FlightAware
03:28PM 40.5430 -117.0670 70° East 489 563 35,000  Level FlightAware
03:29PM 40.5670 -116.9810 70° East 489 563 35,000  Level FlightAware
03:29PM 40.5900 -116.8950 71° East 489 563 35,000  Level FlightAware
03:30PM 40.6140 -116.8100 70° East 489 563 35,000 300 Level FlightAware
03:35PM 41.0100 -115.7800 63° Northeast 485 558 37,000 300 Climbing FlightAware ADS-B
03:35PM 41.0403 -115.7000 63° Northeast 484 557 37,000  Level FlightAware ADS-B
03:36PM 41.0966 -115.5510 63° Northeast 486 559 37,000  Level FlightAware ADS-B
03:37PM 41.1330 -115.4550 63° Northeast 485 558 37,000  Level FlightAware
03:38PM 41.1710 -115.3530 64° Northeast 483 556 37,000  Level FlightAware
03:38PM 41.1881 -115.3060 64° Northeast 486 559 37,000  Level FlightAware ADS-B
03:38PM 41.2181 -115.2260 63° Northeast 486 559 37,000  Level FlightAware ADS-B
03:39PM 41.2483 -115.1440 64° Northeast 487 560 37,000  Level FlightAware ADS-B
03:39PM 41.2781 -115.0640 64° Northeast 487 560 37,000  Level FlightAware ADS-B
03:40PM 41.3082 -114.9820 64° Northeast 489 563 37,000  Level FlightAware ADS-B
03:40PM 41.3389 -114.8980 64° Northeast 489 563 37,000  Level FlightAware ADS-B
03:41PM 41.3693 -114.8150 64° Northeast 489 563 37,000  Level FlightAware ADS-B
03:42PM 41.4066 -114.7130 64° Northeast 490 564 37,000  Level FlightAware ADS-B
03:42PM 41.4366 -114.6310 64° Northeast 491 565 37,000  Level FlightAware ADS-B
03:43PM 41.4690 -114.5420 64° Northeast 491 565 37,000  Level FlightAware ADS-B
03:43PM 41.4987 -114.4600 64° Northeast 492 566 37,000  Level FlightAware ADS-B
03:44PM 41.5303 -114.3720 64° Northeast 491 565 37,000  Level FlightAware ADS-B
03:44PM 41.5615 -114.2860 64° Northeast 490 564 37,000  Level FlightAware ADS-B
03:45PM 41.5911 -114.2030 64° Northeast 491 565 37,000  Level FlightAware ADS-B
03:45PM 41.6207 -114.1210 64° Northeast 491 565 37,000  Level FlightAware ADS-B
03:46PM 41.6504 -114.0380 64° Northeast 492 566 37,000  Level FlightAware ADS-B
03:46PM 41.6802 -113.9540 65° Northeast 492 566 37,000  Level FlightAware ADS-B
03:47PM 41.7162 -113.8520 65° Northeast 492 566 37,000  Level FlightAware ADS-B
03:47PM 41.7525 -113.7500 64° Northeast 492 566 37,000  Level FlightAware ADS-B
03:48PM 41.7856 -113.6550 65° Northeast 491 565 37,000  Level FlightAware ADS-B
03:49PM 41.8220 -113.5520 65° Northeast 490 564 37,000  Level FlightAware ADS-B
03:49PM 41.8620 -113.4360 65° Northeast 488 562 37,000  Level FlightAware
03:50PM 41.8858 -113.3690 64° Northeast 489 563 37,000  Level FlightAware ADS-B
03:50PM 41.9212 -113.2670 65° Northeast 488 562 37,000  Level FlightAware ADS-B
03:51PM 41.9505 -113.1820 65° Northeast 488 562 37,000  Level FlightAware ADS-B
03:51PM 41.9796 -113.0980 65° Northeast 485 558 37,000  Level FlightAware ADS-B
03:52PM 42.0116 -113.0050 65° Northeast 485 558 37,000  Level FlightAware ADS-B
03:53PM 42.0459 -112.9050 65° Northeast 480 552 37,000  Level FlightAware ADS-B
03:53PM 42.0793 -112.8070 65° Northeast 480 552 37,000  Level FlightAware ADS-B
03:54PM 42.1212 -112.6840 65° Northeast 480 552 37,000  Level FlightAware ADS-B
03:54PM 42.1490 -112.6030 65° Northeast 482 555 37,000  Level FlightAware
03:55PM 42.1634 -112.5590 66° East 482 555 37,000  Level FlightAware ADS-B
03:56PM 42.2155 -112.4040 66° East 482 555 37,000  Level FlightAware ADS-B
03:56PM 42.2489 -112.3020 66° East 480 552 37,000  Level FlightAware ADS-B
03:57PM 42.2850 -112.1910 66° East 478 550 37,000  Level FlightAware
03:57PM 42.2972 -112.1530 67° East 478 550 37,000  Level FlightAware ADS-B
03:58PM 42.3312 -112.0490 66° East 477 549 37,000  Level FlightAware ADS-B
03:58PM 42.3581 -111.9660 66° East 475 547 37,000  Level FlightAware ADS-B
03:59PM 42.3848 -111.8830 66° East 473 544 37,000  Level FlightAware ADS-B
03:59PM 42.4113 -111.8000 67° East 477 549 37,000  Level FlightAware ADS-B
04:00PM 42.4388 -111.7150 66° East 479 551 37,000  Level FlightAware ADS-B
04:01PM 42.4735 -111.6060 67° East 479 551 37,000  Level FlightAware ADS-B
04:01PM 42.5007 -111.5210 67° East 481 554 37,000  Level FlightAware ADS-B
04:02PM 42.5480 -111.3730 67° East 482 555 37,000  Level FlightAware
04:03PM 42.5872 -111.2450 67° East 478 550 37,000  Level Salt Lake Center
04:04PM 42.6400 -111.0781 67° East 481 554 37,000  Level Salt Lake Center
04:05PM 42.6975 -110.8931 67° East 482 555 37,000  Level Salt Lake Center
04:06PM 42.7539 -110.7106 67° East 483 556 37,000  Level Salt Lake Center
04:07PM 42.8044 -110.5481 67° East 474 545 37,000  Level Salt Lake Center
04:08PM 42.8614 -110.3625 67° East 475 547 37,000  Level Salt Lake Center
04:09PM 42.9072 -110.2094 68° East 477 549 37,000  Level Salt Lake Center
04:10PM 42.9619 -110.0247 68° East 472 543 37,000  Level Salt Lake Center
04:11PM 43.0086 -109.8686 68° East 469 540 37,000  Level Salt Lake Center
04:12PM 43.0603 -109.7019 67° East 471 542 37,000  Level Salt Lake Center
04:13PM 43.1036 -109.5144 72° East 466 536 37,000  Level Salt Lake Center
04:14PM 43.1350 -109.3544 75° East 460 529 37,000  Level Salt Lake Center
04:15PM 43.1656 -109.1647 77° East 457 526 37,000  Level Salt Lake Center
04:16PM 43.1939 -109.0028 76° East 456 525 37,000  Level Salt Lake Center
04:17PM 43.2264 -108.8175 76° East 449 517 37,000  Level Salt Lake Center
04:18PM 43.2561 -108.6561 76° East 454 522 37,000  Level Salt Lake Center
04:19PM 43.2961 -108.4703 73° East 455 524 37,000  Level Salt Lake Center
04:20PM 43.3311 -108.3089 73° East 459 528 37,000  Level Salt Lake Center
04:22PM 43.3467 -108.1164 84° East 456 525 37,000  Level Salt Lake Center
04:23PM 43.3469 -107.9483 90° East 458 527 37,000  Level Salt Lake Center
04:24PM 43.3414 -107.7783 93° East 463 533 37,000  Level Salt Lake Center
04:25PM 43.3314 -107.5781 94° East 469 540 37,000  Level Salt Lake Center
04:26PM 43.3028 -107.2650 97° East 468 539 37,000  Level Denver Center
04:27PM 43.2747 -107.1147 104° East 464 534 37,000  Level Denver Center
04:28PM 43.2842 -106.9178 86° East 469 540 37,000  Level Denver Center
04:29PM 43.3136 -106.7475 77° East 476 548 37,000  Level Denver Center
04:30PM 43.3514 -106.5514 75° East 476 548 37,000  Level Denver Center
04:31PM 43.3825 -106.3822 76° East 477 549 37,000  Level Denver Center
04:33PM 43.4192 -106.1839 76° East 479 551 37,000  Level Denver Center
04:34PM 43.4503 -106.0125 76° East 481 554 37,000  Level Denver Center
04:35PM 43.4858 -105.8125 76° East 482 555 37,000  Level Denver Center
04:36PM 43.5169 -105.6408 76° East 482 555 37,000  Level Denver Center
04:37PM 43.5525 -105.4408 76° East 481 554 37,000  Level Denver Center
04:38PM 43.5819 -105.2689 77° East 481 554 37,000  Level Denver Center
04:39PM 43.6169 -105.0675 76° East 482 555 37,000  Level Denver Center
04:40PM 43.6464 -104.8931 77° East 483 556 37,000  Level Denver Center
04:41PM 43.6764 -104.7194 77° East 484 557 37,000  Level Denver Center
04:42PM 43.7100 -104.5147 77° East 486 559 37,000  Level Denver Center
04:43PM 43.7389 -104.3386 77° East 488 562 37,000  Level Denver Center
04:44PM 43.7708 -104.1367 78° East 484 557 37,000  Level Denver Center
04:45PM 43.7903 -103.9578 81° East 487 560 37,000  Level Denver Center
04:46PM 43.8058 -103.7472 84° East 490 564 37,000  Level Denver Center
04:47PM 43.8208 -103.5667 83° East 493 567 37,000  Level Denver Center
04:48PM 43.8161 -103.3586 92° East 483 556 37,000  Level Denver Center
04:49PM 43.8211 -103.1772 88° East 501 577 37,000  Level Denver Center
04:50PM 43.8517 -102.9728 78° East 491 565 37,000  Level Denver Center
04:51PM 43.8817 -102.7931 77° East 496 571 37,000  Level Denver Center
04:52PM 43.9139 -102.6036 77° East 494 568 37,000  Level Denver Center
04:53PM 43.9433 -102.4169 78° East 496 571 37,000  Level Denver Center
04:54PM 43.9736 -102.2303 77° East 498 573 37,000  Level Denver Center
04:55PM 44.0044 -102.0450 77° East 496 571 37,000  Level Denver Center
04:56PM 44.0378 -101.8206 78° East 495 570 37,000  Level Denver Center
04:57PM 44.0711 -101.6378 76° East 493 567 37,000  Level Denver Center
04:58PM 44.1014 -101.4522 77° East 493 567 37,000  Level Denver Center
04:59PM 44.1261 -101.2611 80° East 501 577 37,000  Level Denver Center
05:00PM 44.1558 -101.0736 77° East 500 575 37,000 180 Level Denver Center
05:01PM 44.1925 -100.8497 77° East 497 572 37,400 540 Climbing Denver Center
05:03PM 44.2278 -100.6272 77° East 498 573 38,300 660 Climbing Minneapolis Center
05:04PM 44.2611 -100.4019 78° East 497 572 39,000 300 Climbing Minneapolis Center
05:05PM 44.2839 -100.2489 78° East 503 579 39,000  Level Minneapolis Center
05:06PM 44.3178 -100.0203 78° East 505 581 39,000  Level Minneapolis Center
05:07PM 44.3456 -99.8294 78° East 506 582 39,000  Level Minneapolis Center
05:08PM 44.3725 -99.6364 79° East 509 586 39,000  Level Minneapolis Center
05:13PM 44.5250 -98.5260 79° East 519 597 39,000  Level FlightAware
05:14PM 44.5390 -98.4200 79° East 519 597 39,000  Level FlightAware
05:15PM 44.5550 -98.2930 80° East 519 597 39,000  Level FlightAware
05:15PM 44.5710 -98.1700 80° East 520 598 39,000  Level FlightAware
05:16PM 44.5830 -98.0740 80° East 520 598 39,000  Level FlightAware
05:17PM 44.6040 -97.8210 83° East 522 601 39,000  Level FlightAware
05:18PM 44.6100 -97.7170 85° East 523 602 39,000  Level FlightAware
05:18PM 44.6160 -97.5950 86° East 525 604 39,000  Level FlightAware
05:19PM 44.6220 -97.4690 86° East 527 606 39,000  Level FlightAware
05:19PM 44.6270 -97.3670 86° East 529 609 39,000  Level FlightAware
05:20PM 44.6340 -97.2360 86° East 530 610 39,000  Level FlightAware
05:20PM 44.6390 -97.1150 87° East 531 611 39,000  Level FlightAware
05:21PM 44.6450 -96.9990 86° East 532 612 39,000  Level FlightAware
05:22PM 44.6510 -96.8770 86° East 533 613 39,000  Level FlightAware
05:22PM 44.6560 -96.7620 86° East 536 617 39,000  Level FlightAware
05:23PM 44.6610 -96.6360 87° East 536 617 39,000  Level FlightAware
05:23PM 44.6670 -96.5080 86° East 537 618 39,000  Level FlightAware
05:24PM 44.6720 -96.3800 87° East 537 618 39,000  Level FlightAware
05:25PM 44.6770 -96.2670 86° East 537 618 39,000  Level FlightAware
05:25PM 44.6800 -96.1700 87° East 538 619 39,000  Level FlightAware
05:26PM 44.6850 -96.0470 87° East 539 620 39,000  Level FlightAware
05:26PM 44.6900 -95.9170 87° East 539 620 39,000  Level FlightAware
05:27PM 44.6950 -95.7830 87° East 540 621 39,000  Level FlightAware
05:27PM 44.6990 -95.6580 87° East 541 623 39,000  Level FlightAware
05:28PM 44.7040 -95.5270 87° East 540 621 39,000  Level FlightAware
05:29PM 44.7080 -95.3990 87° East 540 621 39,000  Level FlightAware
05:29PM 44.7110 -95.2860 88° East 541 623 39,000  Level FlightAware
05:30PM 44.7150 -95.1670 87° East 541 623 39,000  Level FlightAware
05:30PM 44.7190 -95.0360 87° East 542 624 39,000  Level FlightAware
05:31PM 44.7220 -94.9260 88° East 542 624 39,000  Level FlightAware
05:32PM 44.7260 -94.7920 88° East 541 623 39,000  Level FlightAware
05:32PM 44.7290 -94.6770 88° East 541 623 39,000  Level FlightAware
05:33PM 44.7320 -94.5460 88° East 541 623 39,000  Level FlightAware
05:33PM 44.7350 -94.4310 88° East 541 623 39,000  Level FlightAware
05:34PM 44.7380 -94.3050 88° East 543 625 39,000  Level FlightAware
05:34PM 44.7410 -94.1830 88° East 544 626 39,000  Level FlightAware
05:35PM 44.7430 -94.0560 89° East 544 626 39,000  Level FlightAware
05:36PM 44.7460 -93.9320 88° East 545 627 39,000  Level FlightAware
05:36PM 44.7480 -93.8050 89° East 544 626 39,000  Level FlightAware
05:37PM 44.7510 -93.6630 88° East 545 627 39,000  Level FlightAware
05:38PM 44.7530 -93.5080 89° East 546 628 39,000  Level FlightAware
05:38PM 44.7550 -93.3670 89° East 546 628 39,000  Level FlightAware
05:39PM 44.7560 -93.2510 89° East 547 629 39,000  Level FlightAware
05:40PM 44.7550 -93.1120 91° East 546 628 39,000  Level FlightAware
05:40PM 44.7520 -93.0050 92° East 547 629 39,000  Level FlightAware
05:41PM 44.7470 -92.8440 92° East 548 631 39,000  Level FlightAware
05:41PM 44.7430 -92.7270 93° East 549 632 39,000  Level FlightAware
05:42PM 44.7390 -92.5950 92° East 549 632 39,000  Level FlightAware
05:43PM 44.7340 -92.4510 93° East 549 632 39,000  Level FlightAware
05:43PM 44.7300 -92.3230 92° East 549 632 39,000  Level FlightAware
05:44PM 44.7250 -92.1940 93° East 549 632 39,000  Level FlightAware
05:44PM 44.7200 -92.0670 93° East 550 633 39,000  Level FlightAware
05:45PM 44.7160 -91.9540 93° East 550 633 39,000  Level FlightAware
05:46PM 44.7110 -91.8140 93° East 551 634 39,000  Level FlightAware
05:46PM 44.7060 -91.6940 93° East 552 635 39,000  Level FlightAware
05:47PM 44.7010 -91.5670 93° East 553 636 39,000  Level FlightAware
05:47PM 44.6960 -91.4530 93° East 554 638 39,000  Level FlightAware
05:48PM 44.6900 -91.3260 94° East 553 636 39,000  Level FlightAware
05:48PM 44.6840 -91.1910 94° East 555 639 39,000  Level FlightAware
05:49PM 44.6780 -91.0530 93° East 556 640 39,000  Level FlightAware
05:50PM 44.6720 -90.9240 94° East 556 640 39,000  Level FlightAware
05:50PM 44.6660 -90.7910 94° East 555 639 39,000  Level FlightAware
05:51PM 44.6590 -90.6640 94° East 556 640 39,000  Level FlightAware
05:52PM 44.6530 -90.5290 94° East 556 640 39,000  Level FlightAware
05:52PM 44.6460 -90.4060 95° East 556 640 39,000  Level FlightAware
05:53PM 44.6400 -90.2910 94° East 556 640 39,000  Level FlightAware
05:53PM 44.6330 -90.1660 94° East 557 641 39,000  Level FlightAware
05:54PM 44.6260 -90.0300 94° East 557 641 39,000  Level FlightAware
05:54PM 44.6200 -89.9170 94° East 557 641 39,000  Level FlightAware
05:55PM 44.6130 -89.7920 94° East 558 642 39,000  Level FlightAware
05:56PM 44.6060 -89.6750 95° East 559 643 39,000  Level FlightAware
05:56PM 44.5970 -89.5320 95° East 560 644 39,000  Level FlightAware
05:57PM 44.5890 -89.4030 95° East 561 646 39,000  Level FlightAware
05:57PM 44.5810 -89.2750 95° East 561 646 39,000  Level FlightAware
05:58PM 44.5740 -89.1500 94° East 562 647 39,000  Level FlightAware
05:59PM 44.5650 -89.0210 96° East 562 647 39,000  Level FlightAware
05:59PM 44.5610 -88.9450 94° East 562 647 39,000  Level FlightAware
06:00PM 44.5510 -88.8010 96° East 562 647 39,000  Level FlightAware
06:00PM 44.5420 -88.6690 95° East 560 644 39,000  Level FlightAware
06:01PM 44.5310 -88.5440 97° East 562 647 39,000  Level FlightAware
06:01PM 44.5240 -88.4390 95° East 563 648 39,000  Level FlightAware
06:02PM 44.5130 -88.2830 96° East 564 649 39,000  Level FlightAware
06:03PM 44.5020 -88.1180 95° East 566 651 39,000  Level FlightAware
06:03PM 44.4930 -87.9870 95° East 566 651 39,000  Level FlightAware
06:04PM 44.4840 -87.8710 96° East 567 652 39,000  Level FlightAware
06:05PM 44.4740 -87.7350 96° East 568 654 39,000  Level FlightAware
06:05PM 44.4640 -87.6010 96° East 569 655 39,000  Level FlightAware
06:06PM 44.4560 -87.4970 96° East 570 656 39,000  Level FlightAware
06:06PM 44.4440 -87.3560 97° East 570 656 39,000  Level FlightAware
06:07PM 44.4340 -87.2190 96° East 571 657 39,000  Level FlightAware
06:07PM 44.4230 -87.0830 96° East 571 657 39,000  Level FlightAware
06:08PM 44.4130 -86.9660 97° East 572 658 39,000  Level FlightAware
06:09PM 44.4030 -86.8460 97° East 573 659 39,000  Level FlightAware
06:09PM 44.3920 -86.7160 97° East 573 659 39,000  Level FlightAware
06:10PM 44.3800 -86.5700 97° East 574 661 39,000  Level FlightAware
06:10PM 44.3700 -86.4540 97° East 575 662 39,000  Level FlightAware
06:11PM 44.3580 -86.3180 97° East 575 662 39,000  Level FlightAware
06:12PM 44.3410 -86.1950 101° East 569 655 39,000  Level FlightAware
06:12PM 44.3080 -86.0820 112° Southeast 557 641 39,000  Level FlightAware
06:13PM 44.2580 -85.9760 123° Southeast 542 624 39,000  Level FlightAware
06:13PM 44.2030 -85.8770 128° Southeast 543 625 39,000  Level FlightAware
06:14PM 44.1570 -85.7950 128° Southeast 542 624 39,000  Level FlightAware
06:14PM 44.0950 -85.6850 128° Southeast 542 624 39,000  Level FlightAware
06:15PM 44.0400 -85.5870 128° Southeast 541 623 39,000  Level FlightAware
06:16PM 43.9840 -85.4880 128° Southeast 540 621 39,000  Level FlightAware
06:16PM 43.9380 -85.4070 128° Southeast 539 620 39,000  Level FlightAware
06:17PM 43.8800 -85.3050 128° Southeast 539 620 39,000  Level FlightAware
06:17PM 43.8270 -85.2130 129° Southeast 540 621 39,000  Level FlightAware
06:18PM 43.7680 -85.1090 128° Southeast 540 621 39,000  Level FlightAware
06:18PM 43.7300 -85.0440 129° Southeast 540 621 39,000  Level FlightAware
06:19PM 43.6750 -84.9470 128° Southeast 540 621 39,000  Level FlightAware
06:20PM 43.6180 -84.8490 129° Southeast 540 621 39,000  Level FlightAware
06:20PM 43.5630 -84.7540 129° Southeast 541 623 39,000  Level FlightAware
06:21PM 43.5120 -84.6670 129° Southeast 542 624 39,000  Level FlightAware
06:21PM 43.4520 -84.5650 129° Southeast 544 626 39,000  Level FlightAware
06:22PM 43.3980 -84.4730 129° Southeast 544 626 39,000  Level FlightAware
06:22PM 43.3430 -84.3790 129° Southeast 544 626 39,000  Level FlightAware
06:23PM 43.2910 -84.2900 129° Southeast 543 625 39,000  Level FlightAware
06:24PM 43.2350 -84.1950 129° Southeast 544 626 39,000  Level FlightAware
06:24PM 43.1770 -84.0980 129° Southeast 543 625 39,000  Level FlightAware
06:25PM 43.1300 -84.0200 130° Southeast 542 624 39,000  Level FlightAware
06:25PM 43.0770 -83.9070 123° Southeast 555 639 39,000  Level FlightAware
06:26PM 43.0450 -83.7860 110° East 565 650 39,000  Level FlightAware
06:27PM 43.0240 -83.6610 103° East 565 650 39,000  Level FlightAware
06:27PM 43.0060 -83.5520 103° East 565 650 39,000  Level FlightAware
06:28PM 42.9840 -83.4160 102° East 565 650 39,000  Level FlightAware
06:28PM 42.9640 -83.2950 103° East 565 650 39,000  Level FlightAware
06:29PM 42.9460 -83.1840 102° East 565 650 39,000  Level FlightAware
06:29PM 42.9250 -83.0580 103° East 565 650 39,000  Level FlightAware
06:30PM 42.9020 -82.9260 103° East 564 649 39,000  Level FlightAware
06:31PM 42.8850 -82.8230 103° East 563 648 39,000  Level FlightAware
06:31PM 42.8620 -82.6920 103° East 564 649 39,000  Level FlightAware
06:32PM 42.8420 -82.5750 103° East 563 648 39,000  Level FlightAware
06:32PM 42.8190 -82.4410 103° East 564 649 39,000  Level FlightAware
06:33PM 42.7940 -82.2950 103° East 562 647 39,000  Level FlightAware
06:34PM 42.7710 -82.1670 104° East 563 648 39,000  Level FlightAware
06:34PM 42.7500 -82.0470 103° East 563 648 39,000  Level FlightAware
06:35PM 42.7270 -81.9180 104° East 562 647 39,000  Level FlightAware
06:36PM 42.7040 -81.7880 103° East 562 647 39,000  Level FlightAware
06:36PM 42.6800 -81.6580 104° East 560 644 39,000  Level FlightAware
06:37PM 42.6600 -81.5490 104° East 560 644 39,000  Level FlightAware
06:37PM 42.6360 -81.4190 104° East 560 644 39,000  Level FlightAware
06:38PM 42.6150 -81.3060 104° East 560 644 39,000  Level FlightAware
06:38PM 42.5970 -81.2060 104° East 560 644 39,000  Level FlightAware
06:39PM 42.5710 -81.0670 104° East 560 644 39,000  Level FlightAware
06:40PM 42.5470 -80.9420 105° East 556 640 39,000  Level FlightAware
06:40PM 42.5270 -80.8340 104° East 548 631 39,000  Level FlightAware
06:41PM 42.5040 -80.7150 105° East 543 625 39,000  Level FlightAware
06:42PM 42.4810 -80.5900 104° East 540 621 39,000  Level FlightAware
06:42PM 42.4600 -80.4860 105° East 544 626 39,000  Level FlightAware
06:43PM 42.4360 -80.3610 105° East 545 627 39,000  Level FlightAware
06:43PM 42.4140 -80.2440 104° East 543 625 39,000  Level FlightAware
06:44PM 42.3930 -80.1390 105° East 544 626 39,000  Level FlightAware
06:45PM 42.3660 -80.0000 105° East 548 631 39,000  Level FlightAware
06:45PM 42.3410 -79.8740 105° East 553 636 39,000  Level FlightAware
06:46PM 42.3190 -79.7660 105° East 555 639 39,000  Level FlightAware
06:46PM 42.2950 -79.6470 105° East 556 640 39,000  Level FlightAware
06:47PM 42.2700 -79.5290 106° East 554 638 39,000  Level FlightAware
06:48PM 42.2360 -79.3890 108° East 552 635 39,000  Level FlightAware
06:48PM 42.2070 -79.2720 108° East 551 634 39,000  Level FlightAware
06:49PM 42.1820 -79.1670 108° East 549 632 39,000  Level FlightAware
06:49PM 42.1540 -79.0500 108° East 548 631 39,000  Level FlightAware
06:50PM 42.1260 -78.9330 108° East 550 633 39,000  Level FlightAware
06:50PM 42.1030 -78.8390 108° East 553 636 39,000  Level FlightAware
06:51PM 42.0700 -78.7040 108° East 555 639 39,000  Level FlightAware
06:52PM 42.0450 -78.6000 108° East 555 639 39,000  Level FlightAware
06:52PM 42.0160 -78.4820 108° East 555 639 39,000  Level FlightAware
06:53PM 41.9910 -78.3820 109° East 553 636 39,000  Level FlightAware
06:53PM 41.9590 -78.2520 108° East 551 634 39,000  Level FlightAware
06:54PM 41.9330 -78.1470 108° East 549 632 39,000  Level FlightAware
06:55PM 41.9060 -78.0380 108° East 547 629 39,000  Level FlightAware
06:55PM 41.8750 -77.9180 109° East 546 628 39,000  Level FlightAware
06:56PM 41.8450 -77.7980 109° East 542 624 39,000  Level FlightAware
06:56PM 41.8190 -77.6940 109° East 542 624 39,000  Level FlightAware
06:57PM 41.7900 -77.5820 109° East 541 623 39,000  Level FlightAware
06:57PM 41.7600 -77.4670 109° East 540 621 39,000  Level FlightAware
06:58PM 41.7360 -77.3700 108° East 540 621 39,000  Level FlightAware
06:59PM 41.7050 -77.2530 110° East 537 618 39,000  Level FlightAware
06:59PM 41.6770 -77.1450 109° East 537 618 39,000  Level FlightAware
07:00PM 41.6425 -77.0164 110° East 537 618 39,000  Level FlightAware ADS-B
07:00PM 41.6154 -76.9175 110° East 537 618 39,000  Level FlightAware ADS-B
07:01PM 41.5880 -76.8174 110° East 540 621 39,000  Level FlightAware ADS-B
07:01PM 41.5615 -76.7205 110° East 541 623 39,000  Level FlightAware ADS-B
07:02PM 41.5342 -76.6211 110° East 540 621 39,000  Level FlightAware ADS-B
07:02PM 41.5081 -76.5269 110° East 540 621 39,000  Level FlightAware ADS-B
07:03PM 41.4810 -76.4288 110° East 542 624 39,000 -120 Level FlightAware ADS-B
07:04PM 41.4527 -76.3266 110° East 539 620 38,900 -960 Descending FlightAware ADS-B
07:04PM 41.4263 -76.2323 110° East 533 613 38,000 -2,280 Descending FlightAware ADS-B
07:05PM 41.3930 -76.1135 110° East 537 618 36,300 -2,760 Descending FlightAware ADS-B
07:05PM 41.3661 -76.0182 111° Southeast 542 624 34,800 -3,000 Descending FlightAware ADS-B
07:06PM 41.3376 -75.9173 111° Southeast 541 623 33,200 -2,940 Descending FlightAware ADS-B
07:06PM 41.3112 -75.8240 111° Southeast 539 620 31,800 -2,880 Descending FlightAware ADS-B
07:07PM 41.2840 -75.7293 111° Southeast 532 612 30,300 -3,060 Descending FlightAware ADS-B
07:07PM 41.2656 -75.6690 112° Southeast 529 609 29,200 -3,420 Descending FlightAware ADS-B
07:08PM 41.2355 -75.5766 113° Southeast 531 611 27,400 -3,540 Descending FlightAware ADS-B
07:08PM 41.2035 -75.4811 114° Southeast 532 612 25,500 -3,240 Descending FlightAware ADS-B
07:09PM 41.1725 -75.3887 114° Southeast 525 604 24,000 -2,340 Descending FlightAware ADS-B
07:09PM 41.1426 -75.3002 114° Southeast 512 589 23,100 -1,020 Descending FlightAware ADS-B
07:10PM 41.1132 -75.2134 114° Southeast 507 583 23,000 -120 Descending FlightAware ADS-B
07:10PM 41.0839 -75.1271 114° Southeast 505 581 23,000  Level FlightAware ADS-B
07:11PM 41.0535 -75.0380 114° Southeast 509 586 23,000 -300 Level FlightAware ADS-B
07:11PM 41.0245 -74.9527 114° Southeast 504 580 22,700 -780 Descending FlightAware ADS-B
07:11PM 41.0162 -74.9279 114° Southeast 503 579 22,500 -1,740 Descending FlightAware ADS-B
07:12PM 41.0012 -74.8721 110° East 498 573 21,900 -2,280 Descending FlightAware ADS-B
07:12PM 40.9902 -74.8118 104° East 495 570 21,000 -2,640 Descending FlightAware ADS-B
07:13PM 40.9793 -74.7223 99° East 488 562 19,700 -1,860 Descending FlightAware ADS-B
07:13PM 40.9697 -74.6310 98° East 458 527 19,100 -720 Descending FlightAware ADS-B
07:14PM 40.9609 -74.5485 98° East 447 514 19,000 -120 Descending FlightAware ADS-B
07:14PM 40.9520 -74.4656 98° East 450 518 19,000  Level FlightAware ADS-B
07:15PM 40.9431 -74.3849 98° East 439 505 19,000  Level FlightAware ADS-B
07:15PM 40.9344 -74.3060 98° East 404 465 19,000  Level FlightAware ADS-B
07:15PM 40.9315 -74.2823 99° East 393 452 19,000  Level FlightAware ADS-B
07:16PM 40.9257 -74.2555 106° East 380 437 19,000  Level FlightAware ADS-B
07:16PM 40.9206 -74.2405 114° Southeast 371 427 19,000  Level FlightAware ADS-B
07:16PM 40.9143 -74.2270 122° Southeast 366 421 19,000  Level FlightAware ADS-B
07:16PM 40.9065 -74.2141 129° Southeast 359 413 19,000  Level FlightAware ADS-B
07:16PM 40.8987 -74.2041 136° Southeast 355 409 19,000 -1,320 Level FlightAware ADS-B
07:16PM 40.8604 -74.1639 142° Southeast 354 407 18,200 -1,560 Descending FlightAware ADS-B
07:17PM 40.8234 -74.1242 141° Southeast 352 405 17,500 -1,380 Descending FlightAware ADS-B
07:17PM 40.8206 -74.1212 141° Southeast 352 405 17,500 -1,380 Level FlightAware ADS-B
07:17PM 40.7843 -74.0822 141° Southeast 350 403 16,800 -1,500 Descending FlightAware ADS-B
07:18PM 40.7812 -74.0791 143° Southeast 351 404 16,700 -1,620 Descending FlightAware ADS-B
07:18PM 40.7603 -74.0579 142° Southeast 347 399 16,300 -1,440 Descending FlightAware ADS-B
07:18PM 40.7478 -74.0489 151° Southeast 339 390 16,100 -1,320 Descending FlightAware ADS-B
07:18PM 40.7017 -74.0269 160° South 334 384 15,400 -1,380 Descending FlightAware ADS-B
07:19PM 40.6561 -74.0063 161° South 331 381 14,700 -1,380 Descending FlightAware ADS-B
07:19PM 40.6176 -73.9891 161° South 327 376 14,100 -1,380 Descending FlightAware ADS-B
07:20PM 40.5657 -73.9758 169° South 316 364 13,300 -900 Descending FlightAware ADS-B
07:21PM 40.5204 -73.9673 172° South 311 358 13,100 -240 Descending FlightAware ADS-B
07:21PM 40.4768 -73.9597 172° South 310 357 13,100 -300 Level FlightAware ADS-B
07:22PM 40.4340 -73.9528 173° South 308 354 12,800 -1,020 Descending FlightAware ADS-B
07:22PM 40.3993 -73.9467 172° South 307 353 12,200 -1,440 Descending FlightAware ADS-B
07:22PM 40.3675 -73.9417 173° South 304 350 11,700 -1,320 Descending FlightAware ADS-B
07:22PM 40.3604 -73.9399 169° South 305 351 11,600 -1,440 Descending FlightAware ADS-B
07:23PM 40.3445 -73.9315 158° South 311 358 11,300 -1,440 Descending FlightAware ADS-B
07:23PM 40.3294 -73.9163 142° Southeast 315 362 11,000 -1,500 Descending FlightAware ADS-B
07:23PM 40.3234 -73.9062 128° Southeast 317 365 10,800 -1,500 Descending FlightAware ADS-B
07:23PM 40.3152 -73.8829 115° Southeast 321 369 10,500 -1,620 Descending FlightAware ADS-B
07:24PM 40.3074 -73.8443 105° East 325 374 9,900 -1,800 Descending FlightAware ADS-B
07:24PM 40.3057 -73.8305 99° East 326 375 9,700 -1,680 Descending FlightAware ADS-B
07:24PM 40.3039 -73.8019 95° East 328 377 9,300 -1,320 Descending FlightAware ADS-B
07:24PM 40.3037 -73.7859 91° East 326 375 9,200 -1,140 Descending FlightAware ADS-B
07:24PM 40.3049 -73.7581 87° East 325 374 8,900 -1,320 Descending FlightAware ADS-B
07:24PM 40.3067 -73.7411 82° East 324 373 8,700 -1,260 Descending FlightAware ADS-B
07:25PM 40.3114 -73.7120 78° East 320 368 8,400 -1,200 Descending FlightAware ADS-B
07:25PM 40.3136 -73.6999 77° East 315 362 8,300 -1,020 Descending FlightAware ADS-B
07:25PM 40.3200 -73.6793 68° East 311 358 8,100 -540 Descending FlightAware ADS-B
07:25PM 40.3287 -73.6630 55° Northeast 303 349 8,100  Level FlightAware ADS-B
07:25PM 40.3443 -73.6432 44° Northeast 300 345 8,100 -180 Level FlightAware ADS-B
07:26PM 40.3637 -73.6204 42° Northeast 300 345 8,000 -660 Descending FlightAware ADS-B
07:26PM 40.3829 -73.5980 42° Northeast 297 342 7,700 -1,080 Descending FlightAware ADS-B
07:26PM 40.3998 -73.5793 40° Northeast 297 342 7,400 -1,260 Descending FlightAware ADS-B
07:26PM 40.4088 -73.5712 34° Northeast 295 339 7,200 -420 Descending FlightAware ADS-B
07:27PM 40.4559 -73.5337 31° Northeast 294 338 7,100 -120 Descending FlightAware ADS-B
07:27PM 40.4817 -73.5138 30° Northeast 294 338 7,100 -180 Level FlightAware ADS-B
07:28PM 40.5085 -73.4929 31° Northeast 294 338 7,000 -660 Descending FlightAware ADS-B
07:28PM 40.5275 -73.4780 31° Northeast 292 336 6,700 -1,260 Descending FlightAware ADS-B
07:29PM 40.5700 -73.4450 31° Northeast 291 335 5,900 -1,380 Descending FlightAware
07:29PM 40.5940 -73.4260 31° Northeast 290 334 5,400 -1,140 Descending FlightAware
07:30PM 40.6210 -73.4060 29° Northeast 289 333 5,100 -420 Descending FlightAware
07:30PM 40.6460 -73.3870 30° Northeast 288 331 5,100  Level FlightAware
07:30PM 40.6690 -73.3690 31° Northeast 290 334 5,100  Level FlightAware
07:31PM 40.6910 -73.3520 30° Northeast 290 334 5,100  Level FlightAware
07:31PM 40.7110 -73.3390 26° Northeast 287 330 5,100  Level FlightAware
07:31PM 40.7160 -73.3380 North 283 326 5,100  Level FlightAware
07:31PM 40.7530 -73.3550 341° North 258 297 5,100  Level FlightAware
07:32PM 40.7590 -73.3670 303° West 247 284 5,100  Level FlightAware
07:32PM 40.7690 -73.3910 299° West 229 264 5,100 -180 Level FlightAware
07:32PM 40.7790 -73.4160 298° West 212 244 5,000 -480 Descending FlightAware
07:33PM 40.7870 -73.4360 298° West 207 238 4,800 -840 Descending FlightAware
07:33PM 40.7960 -73.4580 298° West 205 236 4,500 -960 Descending FlightAware
07:33PM 40.8060 -73.4810 300° West 205 236 4,200 -1,020 Descending FlightAware
07:33PM 40.8130 -73.4980 299° West 205 236 3,900 -1,020 Descending FlightAware
07:34PM 40.8220 -73.5200 298° West 205 236 3,600 -900 Descending FlightAware
07:34PM 40.8240 -73.5290 286° West 202 232 3,500 -720 Descending FlightAware
07:34PM 40.8270 -73.5530 279° West 193 222 3,300 -540 Descending FlightAware
07:34PM 40.8260 -73.5680 265° West 184 212 3,200 -540 Descending FlightAware
07:35PM 40.8220 -73.5930 258° West 173 199 3,000 -720 Descending FlightAware
07:35PM 40.8190 -73.6050 252° West 170 196 2,800 -840 Descending FlightAware
07:35PM 40.8160 -73.6130 244° Southwest 171 197 2,700 -540 Descending FlightAware
07:35PM 40.8080 -73.6270 233° Southwest 160 184 2,600 -180 Descending FlightAware
07:36PM 40.7980 -73.6470 237° Southwest 174 200 2,600  Level FlightAware
07:36PM 40.7900 -73.6580 226° Southwest 177 204 2,600  Level FlightAware
07:36PM 40.7780 -73.6720 221° Southwest 179 206 2,600  Level FlightAware
07:37PM 40.7640 -73.6840 213° Southwest 171 197 2,600 -300 Level FlightAware
07:37PM 40.7490 -73.6950 209° Southwest 152 175 2,400 -540 Descending FlightAware
07:37PM 40.7420 -73.6990 203° Southwest 144 166 2,300 -660 Descending FlightAware
07:38PM 40.7280 -73.7090 208° Southwest 129 148 2,000 -660 Descending FlightAware
07:38PM 40.7170 -73.7170 209° Southwest 127 146 1,800 -780 Descending FlightAware
07:38PM 40.7110 -73.7210 207° Southwest 125 144 1,600 -780 Descending FlightAware
07:39PM 40.7000 -73.7280 206° Southwest 125 144 1,400 -600 Descending FlightAware
07:39PM 40.6900 -73.7360 211° Southwest 127 146 1,200 -660 Descending FlightAware
07:39PM 40.6810 -73.7420 207° Southwest 126 145 1,000 -720 Descending FlightAware
07:40PM 40.6720 -73.7490 211° Southwest 125 144 800 -660 Descending FlightAware
07:40PM 40.6620 -73.7560 208° Southwest 126 145 600 -720 Descending FlightAware
07:40PM 40.6530 -73.7620 207° Southwest 132 152 400 -840 Descending FlightAware
07:41PM 40.6430 -73.7700 211° Southwest 128 147 100 -900 Descending FlightAware
07:41PM 40.6330 -73.7770 208° Southwest 88 101 -300 Descending FlightAware